Time;durP1;ratioP1;P1;durP2;ratioP2;P2;SDS_P1;SDS_P2;PMS_P1;PMS_P2;Temp;Humidity;BMP_temperature;BMP_pressure;BME280_temperature;BME280_humidity;BME280_pressure;Samples;Min_cycle;Max_cycle;Signal;HPM_P1;HPM_P2
2022/04/28 00:00:49;;;;;;;6.68;4.25;;;;;;;5.42;63.16;100161.03;5093248;28;20080;-60
2022/04/28 00:03:14;;;;;;;5.00;4.50;;;;;;;5.45;63.01;100167.91;5092938;28;20477;-59
2022/04/28 00:05:41;;;;;;;7.35;4.53;;;;;;;5.33;62.65;100171.22;5093029;28;20052;-60
2022/04/28 00:08:08;;;;;;;4.97;3.97;;;;;;;5.30;62.18;100177.22;5093147;28;20060;-60
2022/04/28 00:10:35;;;;;;;5.32;4.05;;;;;;;5.33;61.62;100186.63;5092885;28;20032;-60
2022/04/28 00:13:00;;;;;;;4.85;4.15;;;;;;;5.29;61.89;100197.75;5092729;28;20024;-59
2022/04/28 00:15:28;;;;;;;5.43;4.15;;;;;;;4.86;61.46;100198.22;5092427;28;20534;-60
2022/04/28 00:17:53;;;;;;;5.72;4.07;;;;;;;5.18;61.23;100203.63;5092410;28;20016;-60
2022/04/28 00:20:19;;;;;;;4.97;3.85;;;;;;;5.19;61.21;100196.81;5092408;28;20501;-60
2022/04/28 00:22:45;;;;;;;3.75;3.42;;;;;;;5.21;59.46;100200.25;5092504;28;20102;-60
2022/04/28 00:25:11;;;;;;;4.38;3.70;;;;;;;5.23;59.75;100197.69;5092379;28;20531;-60
2022/04/28 00:27:37;;;;;;;3.97;3.22;;;;;;;5.18;58.73;100208.78;5091841;28;20077;-60
2022/04/28 00:30:05;;;;;;;3.50;3.05;;;;;;;5.23;58.15;100215.66;5092502;28;20028;-59
2022/04/28 00:32:30;;;;;;;4.45;3.15;;;;;;;5.27;58.67;100213.16;5092423;28;20031;-59
2022/04/28 00:34:56;;;;;;;4.40;3.25;;;;;;;5.29;57.62;100215.75;5092274;28;20059;-59
2022/04/28 00:37:22;;;;;;;5.22;3.53;;;;;;;5.30;57.90;100208.03;5074093;28;20078;-59
2022/04/28 00:39:48;;;;;;;3.95;3.60;;;;;;;5.36;56.96;100208.09;5091935;28;20036;-59
2022/04/28 00:42:15;;;;;;;4.00;3.25;;;;;;;4.64;55.83;100156.94;5092008;28;20038;-60
2022/04/28 00:44:42;;;;;;;3.08;2.83;;;;;;;5.01;55.36;100205.19;5092391;28;20393;-60
2022/04/28 00:47:09;;;;;;;5.35;3.08;;;;;;;5.17;56.01;100217.34;5092112;28;20035;-60
2022/04/28 00:52:21;;;;;;;3.30;3.00;;;;;;;5.19;56.07;100225.91;5092051;28;20039;-60
2022/04/28 00:54:49;;;;;;;4.38;3.00;;;;;;;5.14;54.18;100247.25;5082284;28;20055;-60
2022/04/28 00:57:15;;;;;;;6.50;3.20;;;;;;;5.10;55.45;100225.84;5092214;28;20428;-60
2022/04/28 00:59:41;;;;;;;3.60;3.00;;;;;;;5.02;55.37;100232.59;5092224;28;20432;-60
2022/04/28 01:02:10;;;;;;;2.85;2.60;;;;;;;5.08;55.50;100226.66;5073793;28;20564;-60
2022/04/28 01:04:36;;;;;;;4.07;3.17;;;;;;;5.15;56.18;100231.88;5091982;28;20097;-60
2022/04/28 01:07:02;;;;;;;4.03;3.42;;;;;;;4.90;55.16;100232.47;5092025;28;20057;-58
2022/04/28 01:09:27;;;;;;;6.13;3.40;;;;;;;4.90;55.45;100232.47;5092079;28;20024;-59
2022/04/28 01:11:53;;;;;;;3.42;2.88;;;;;;;4.93;56.21;100227.34;5091987;28;20035;-59
2022/04/28 01:14:20;;;;;;;4.82;3.45;;;;;;;4.89;56.62;100236.75;5091956;28;20053;-59
2022/04/28 01:16:46;;;;;;;4.47;3.38;;;;;;;4.95;56.99;100235.94;5092057;28;20157;-58
2022/04/28 01:19:11;;;;;;;4.05;3.50;;;;;;;4.63;58.08;100239.88;5091759;28;20380;-59
2022/04/28 01:21:37;;;;;;;5.93;3.65;;;;;;;4.70;57.49;100245.06;5091782;28;20115;-59
2022/04/28 01:24:03;;;;;;;4.82;3.60;;;;;;;4.54;57.87;100239.75;5091685;28;20028;-59
2022/04/28 01:26:29;;;;;;;4.47;3.65;;;;;;;4.43;59.32;100246.44;5092119;28;20059;-59
2022/04/28 01:28:55;;;;;;;5.63;4.00;;;;;;;4.42;60.42;100244.75;5090552;28;20095;-60
2022/04/28 01:31:21;;;;;;;5.72;3.78;;;;;;;4.41;60.33;100246.44;5091835;28;20358;-59
2022/04/28 01:33:47;;;;;;;4.85;3.60;;;;;;;4.35;59.92;100245.50;5091887;28;20078;-58
2022/04/28 01:36:12;;;;;;;6.35;3.67;;;;;;;4.25;59.62;100257.34;5078482;28;20036;-60
2022/04/28 01:38:38;;;;;;;5.22;4.28;;;;;;;4.28;59.61;100250.53;5091859;28;20036;-60
2022/04/28 01:41:03;;;;;;;5.38;3.35;;;;;;;4.39;58.97;100266.09;5091880;28;20023;-59
2022/04/28 01:43:29;;;;;;;4.57;3.42;;;;;;;4.42;58.68;100267.84;5091367;28;20024;-60
2022/04/28 01:45:54;;;;;;;7.88;3.95;;;;;;;4.31;58.20;100273.66;5092025;28;20032;-60
2022/04/28 01:48:20;;;;;;;4.03;2.75;;;;;;;3.83;56.03;100225.13;5091669;28;20039;-60
2022/04/28 01:54:57;;;;;;;4.38;3.17;;;;;;;4.42;56.24;100270.41;5091579;28;20028;-60
2022/04/28 01:56:15;;;;;;;4.45;3.78;;;;;;;4.27;56.05;100271.88;5094774;28;20028;-61
2022/04/28 01:58:41;;;;;;;5.20;3.58;;;;;;;4.28;56.26;100281.31;5095641;28;20027;-60
2022/04/28 02:01:07;;;;;;;5.07;3.33;;;;;;;4.25;56.23;100275.28;5090783;28;20031;-60
2022/04/28 02:03:32;;;;;;;3.80;3.08;;;;;;;4.35;55.87;100273.69;5080365;28;20032;-59
2022/04/28 02:05:58;;;;;;;5.90;3.85;;;;;;;4.32;55.23;100275.38;5076706;28;20428;-60
2022/04/28 02:08:24;;;;;;;4.47;3.05;;;;;;;4.30;54.89;100282.22;5095031;28;20039;-60
2022/04/28 02:10:50;;;;;;;4.25;3.38;;;;;;;4.15;54.57;100264.03;5074612;28;20413;-59
2022/04/28 02:13:16;;;;;;;3.70;3.30;;;;;;;4.20;53.08;100277.78;5093808;28;20038;-59
2022/04/28 02:15:45;;;;;;;3.97;3.28;;;;;;;4.23;53.80;100277.84;5093624;28;20095;-59
2022/04/28 02:18:11;;;;;;;4.75;3.45;;;;;;;4.25;53.79;100277.84;5094233;28;20027;-59
2022/04/28 02:20:37;;;;;;;4.20;3.33;;;;;;;4.32;53.91;100285.66;5095024;28;20024;-59
2022/04/28 02:23:03;;;;;;;7.10;3.78;;;;;;;4.21;52.86;100287.19;5076500;28;20025;-58
2022/04/28 02:25:28;;;;;;;5.20;3.65;;;;;;;4.05;53.34;100278.44;5087289;28;20056;-60
2022/04/28 02:27:54;;;;;;;3.70;3.22;;;;;;;4.14;53.07;100290.50;5076426;28;20032;-58
2022/04/28 02:30:20;;;;;;;5.85;3.42;;;;;;;4.22;52.54;100291.50;5093952;28;20024;-61
2022/04/28 02:35:29;;;;;;;3.50;2.90;;;;;;;4.18;52.43;100292.28;5074682;28;20089;-60
2022/04/28 02:37:55;;;;;;;4.38;3.50;;;;;;;3.95;52.25;100285.09;5073054;28;20032;-60
2022/04/28 02:40:20;;;;;;;6.25;3.70;;;;;;;4.10;53.46;100294.72;5094630;28;20032;-59
2022/04/28 02:42:46;;;;;;;5.55;3.63;;;;;;;4.07;51.19;100297.25;5094233;28;20062;-58
2022/04/28 02:45:11;;;;;;;4.32;3.63;;;;;;;4.11;51.33;100303.28;5094485;28;20028;-58
2022/04/28 02:47:37;;;;;;;6.50;3.40;;;;;;;4.14;51.59;100303.31;5094566;28;20035;-59
2022/04/28 02:50:05;;;;;;;5.43;2.95;;;;;;;4.26;50.65;100307.75;5094270;28;20016;-59
2022/04/28 02:52:31;;;;;;;5.55;2.80;;;;;;;4.13;50.09;100299.03;5094037;28;20040;-57
2022/04/28 02:54:57;;;;;;;5.32;3.10;;;;;;;4.23;48.68;100311.16;5094435;28;20020;-58
2022/04/28 02:57:22;;;;;;;3.63;2.78;;;;;;;4.40;49.37;100310.53;5083254;28;20021;-59
2022/04/28 02:59:48;;;;;;;2.65;2.45;;;;;;;4.49;48.06;100319.22;5072824;28;20032;-59
2022/04/28 03:02:13;;;;;;;7.18;2.88;;;;;;;4.53;47.25;100314.97;5093228;28;20032;-59
2022/04/28 03:04:39;;;;;;;5.82;2.60;;;;;;;4.51;47.22;100316.66;5093629;28;20024;-59
2022/04/28 03:12:35;;;;;;;3.13;2.40;;;;;;;4.42;45.56;100319.13;5093878;28;20028;-59
2022/04/28 03:15:04;;;;;;;3.08;2.15;;;;;;;4.51;46.49;100326.06;5093570;28;20028;-59
2022/04/28 03:17:30;;;;;;;5.18;2.70;;;;;;;4.81;45.65;100325.59;5094178;28;20050;-59
2022/04/28 03:19:55;;;;;;;4.40;2.70;;;;;;;5.17;46.31;100338.03;5093517;28;20028;-60
2022/04/28 03:22:21;;;;;;;5.20;2.70;;;;;;;5.50;45.47;100333.19;5094020;28;20073;-59
2022/04/28 03:24:47;;;;;;;4.97;2.58;;;;;;;5.49;43.25;100339.22;5093440;28;20028;-60
2022/04/28 03:27:12;;;;;;;3.35;2.20;;;;;;;5.29;42.99;100346.69;5091896;28;20089;-60
2022/04/28 03:29:38;;;;;;;4.88;2.60;;;;;;;5.32;42.84;100339.03;5093798;28;20036;-60
2022/04/28 03:32:08;;;;;;;4.05;2.47;;;;;;;5.36;41.93;100356.19;5093505;28;20016;-59
2022/04/28 03:34:34;;;;;;;4.65;2.33;;;;;;;5.22;43.24;100353.47;5093290;28;20062;-58
2022/04/28 03:36:59;;;;;;;2.70;2.30;;;;;;;5.48;43.15;100355.44;5093410;28;20056;-59
2022/04/28 03:39:25;;;;;;;3.53;2.30;;;;;;;5.64;42.46;100364.16;5093560;28;20047;-60
2022/04/28 03:41:51;;;;;;;2.88;2.10;;;;;;;5.42;41.62;100361.38;5093335;28;20069;-59
2022/04/28 03:44:16;;;;;;;4.70;2.47;;;;;;;5.58;42.11;100366.69;5092980;28;20027;-59
2022/04/28 03:46:42;;;;;;;4.65;2.10;;;;;;;5.59;43.37;100379.56;5093063;28;20027;-59
2022/04/28 03:49:07;;;;;;;3.95;2.70;;;;;;;5.72;42.80;100375.38;5092957;28;20458;-58
2022/04/28 03:51:33;;;;;;;3.35;2.22;;;;;;;5.98;41.69;100375.66;5093497;28;20488;-59
2022/04/28 03:54:02;;;;;;;4.60;2.42;;;;;;;6.09;41.48;100359.47;5081820;28;20115;-59
2022/04/28 03:56:31;;;;;;;4.25;1.80;;;;;;;6.11;39.99;100386.03;5072888;28;20032;-58
2022/04/28 03:58:58;;;;;;;4.15;1.58;;;;;;;6.07;40.42;100372.31;5088959;28;20389;-58
2022/04/28 04:01:24;;;;;;;2.05;1.70;;;;;;;6.21;40.98;100382.69;5092856;28;20028;-59
2022/04/28 04:03:50;;;;;;;3.13;1.58;;;;;;;6.22;40.18;100387.84;5092796;28;20039;-59
2022/04/28 04:06:19;;;;;;;1.73;1.63;;;;;;;6.12;39.96;100386.06;5092871;28;20489;-62
2022/04/28 04:08:45;;;;;;;2.30;1.70;;;;;;;6.18;41.26;100392.94;5058082;28;20028;-59
2022/04/28 04:11:12;;;;;;;1.85;1.50;;;;;;;6.27;40.08;100393.03;5092733;28;20023;-60
2022/04/28 04:13:38;;;;;;;3.10;1.60;;;;;;;6.28;40.08;100392.16;5092502;28;20031;-60
2022/04/28 04:16:04;;;;;;;2.05;1.45;;;;;;;5.97;38.51;100394.50;5092275;28;20039;-60
2022/04/28 04:18:31;;;;;;;2.75;1.55;;;;;;;6.14;39.66;100404.94;5092573;28;20032;-59
2022/04/28 04:20:57;;;;;;;2.10;1.48;;;;;;;5.70;39.52;100408.78;5092589;28;20024;-60
2022/04/28 04:23:22;;;;;;;2.25;1.75;;;;;;;5.77;39.45;100412.28;5072253;28;20021;-60
2022/04/28 04:25:48;;;;;;;3.15;1.70;;;;;;;5.62;38.98;100418.13;5087112;28;20035;-61
2022/04/28 04:28:14;;;;;;;4.05;1.80;;;;;;;5.46;39.20;100419.66;5089696;28;20020;-60
2022/04/28 04:33:23;;;;;;;4.18;1.50;;;;;;;5.63;38.96;100418.97;5092295;28;20034;-60
2022/04/28 04:35:49;;;;;;;1.67;1.55;;;;;;;5.43;37.66;100427.34;5092453;28;20032;-60
2022/04/28 04:38:14;;;;;;;1.60;1.33;;;;;;;5.60;38.81;100429.22;5091951;28;20020;-61
2022/04/28 04:40:40;;;;;;;2.05;1.50;;;;;;;5.58;38.08;100434.34;5091495;28;20096;-60
2022/04/28 04:43:09;;;;;;;1.50;1.40;;;;;;;5.34;37.65;100433.22;5091628;28;20449;-59
2022/04/28 04:45:34;;;;;;;2.33;1.40;;;;;;;5.47;36.91;100435.91;5092071;28;20473;-58
2022/04/28 04:48:00;;;;;;;2.03;1.23;;;;;;;5.63;37.37;100431.81;5092307;28;20065;-59
2022/04/28 04:50:26;;;;;;;3.05;1.50;;;;;;;5.76;37.83;100435.38;5088488;28;20369;-59
2022/04/28 04:52:51;;;;;;;2.28;1.60;;;;;;;6.24;37.75;100438.44;5086217;28;20063;-58
2022/04/28 04:55:17;;;;;;;5.32;1.83;;;;;;;6.93;36.10;100418.34;5075402;28;20025;-59
2022/04/28 04:57:43;;;;;;;4.70;1.48;;;;;;;6.99;35.11;100428.66;5077217;28;20132;-59
2022/04/28 05:00:10;;;;;;;3.20;1.40;;;;;;;7.68;34.51;100434.94;5092268;28;20039;-59
2022/04/28 05:02:35;;;;;;;5.95;1.90;;;;;;;8.39;33.90;100435.03;5091941;28;20020;-59
2022/04/28 05:05:01;;;;;;;4.40;1.55;;;;;;;9.00;33.96;100428.94;5091631;28;20117;-60
2022/04/28 05:07:31;;;;;;;5.18;1.75;;;;;;;9.63;32.93;100436.44;5092139;28;20093;-59
2022/04/28 05:09:56;;;;;;;3.65;1.63;;;;;;;10.19;31.78;100428.31;5091451;28;20035;-59
2022/04/28 05:12:22;;;;;;;3.20;1.40;;;;;;;10.88;30.90;100430.28;5091447;28;20024;-60
2022/04/28 05:14:48;;;;;;;3.72;1.65;;;;;;;11.45;29.53;100431.34;5091223;28;20035;-60
2022/04/28 05:17:14;;;;;;;4.25;1.83;;;;;;;11.71;30.05;100430.13;5091777;28;20100;-59
2022/04/28 05:19:39;;;;;;;3.25;1.27;;;;;;;10.97;30.22;100441.44;5091275;28;20024;-60
2022/04/28 05:22:05;;;;;;;3.28;1.60;;;;;;;11.11;29.95;100444.72;5083013;28;20025;-61
2022/04/28 05:24:30;;;;;;;2.88;1.65;;;;;;;10.92;30.72;100440.63;5074764;28;20028;-59
2022/04/28 05:26:56;;;;;;;3.35;1.60;;;;;;;10.37;29.90;100455.81;5092689;28;20032;-59
2022/04/28 05:29:22;;;;;;;3.45;1.50;;;;;;;11.18;29.21;100446.38;5093817;28;20043;-60
2022/04/28 05:31:47;;;;;;;8.40;1.63;;;;;;;11.37;30.46;100443.56;5093302;28;20028;-60
2022/04/28 05:34:13;;;;;;;1.65;1.05;;;;;;;11.84;27.79;100443.78;5093217;28;20027;-60
2022/04/28 05:36:40;;;;;;;1.88;1.38;;;;;;;12.34;27.85;100436.13;5093530;28;20020;-60
2022/04/28 05:39:06;;;;;;;2.50;1.20;;;;;;;12.83;28.16;100443.09;5093473;28;20135;-59
2022/04/28 05:41:33;;;;;;;1.55;1.10;;;;;;;12.86;28.41;100435.22;5075367;28;20016;-60
2022/04/28 05:46:43;;;;;;;1.92;1.30;;;;;;;12.54;28.15;100439.28;5095666;28;20031;-61
2022/04/28 05:49:09;;;;;;;4.97;1.38;;;;;;;12.36;28.42;100444.78;5089693;28;20029;-60
2022/04/28 05:51:35;;;;;;;2.65;1.45;;;;;;;11.79;28.56;100441.28;5081721;28;20481;-61
2022/04/28 05:54:00;;;;;;;5.72;1.70;;;;;;;11.45;30.06;100441.72;5084666;28;20107;-60
2022/04/28 05:56:26;;;;;;;2.85;1.50;;;;;;;11.85;30.52;100435.13;5085980;28;20044;-61
2022/04/28 05:58:51;;;;;;;3.03;1.50;;;;;;;12.20;29.41;100433.75;5086584;28;20032;-59
2022/04/28 06:01:17;;;;;;;2.53;1.60;;;;;;;12.17;29.25;100437.28;5083741;28;20019;-60
2022/04/28 06:03:43;;;;;;;3.28;1.48;;;;;;;12.08;29.30;100434.81;5094988;28;20558;-60
2022/04/28 06:06:09;;;;;;;5.68;1.50;;;;;;;12.34;28.12;100431.81;5094959;28;20565;-59
2022/04/28 06:08:35;;;;;;;1.33;1.20;;;;;;;12.26;27.65;100437.13;5095199;28;20039;-59
2022/04/28 06:11:01;;;;;;;2.70;1.30;;;;;;;12.30;27.43;100437.06;5094881;28;20024;-59
2022/04/28 06:13:27;;;;;;;1.98;1.33;;;;;;;12.34;27.36;100433.53;5094801;28;20107;-60
2022/04/28 06:15:53;;;;;;;1.42;1.33;;;;;;;12.46;27.82;100440.28;5092064;28;20108;-60
2022/04/28 06:18:18;;;;;;;1.73;1.30;;;;;;;12.58;27.62;100438.34;5076039;28;20166;-60
2022/04/28 06:20:45;;;;;;;3.75;1.50;;;;;;;12.13;27.16;100448.59;5094118;28;20024;-60
2022/04/28 06:23:11;;;;;;;2.30;1.25;;;;;;;12.57;27.66;100439.22;5094795;28;20081;-60
2022/04/28 06:25:37;;;;;;;2.92;1.40;;;;;;;12.92;26.59;100436.84;5094848;28;20081;-59
2022/04/28 06:28:03;;;;;;;3.90;1.40;;;;;;;13.20;25.54;100450.19;5090820;28;20439;-59
2022/04/28 06:30:29;;;;;;;4.53;1.45;;;;;;;13.51;25.64;100454.78;5095094;28;20043;-61
2022/04/28 06:32:55;;;;;;;3.15;1.55;;;;;;;13.98;26.86;100447.69;5059424;28;20040;-60
2022/04/28 06:35:20;;;;;;;2.35;1.35;;;;;;;13.77;24.72;100445.56;5076406;28;20422;-60
2022/04/28 06:37:46;;;;;;;2.70;1.20;;;;;;;13.80;25.37;100445.50;5094134;28;20089;-60
2022/04/28 06:40:12;;;;;;;2.03;1.60;;;;;;;12.58;26.31;100451.34;5094271;28;20507;-60
2022/04/28 06:42:43;;;;;;;2.90;1.20;;;;;;;14.12;25.81;100444.75;5094327;28;20427;-60
2022/04/28 06:45:10;;;;;;;2.33;1.55;;;;;;;14.70;24.37;100443.38;5094378;28;20027;-60
2022/04/28 06:47:36;;;;;;;2.80;1.48;;;;;;;13.50;22.67;100445.28;5076321;28;20024;-60
2022/04/28 06:50:02;;;;;;;1.48;1.10;;;;;;;13.13;24.59;100448.59;5076139;28;20031;-60
2022/04/28 06:52:29;;;;;;;2.28;1.58;;;;;;;12.55;23.81;100451.34;5094049;28;20477;-59
2022/04/28 06:54:55;;;;;;;2.75;1.40;;;;;;;12.22;24.27;100448.44;5090543;28;20032;-59
2022/04/28 06:57:20;;;;;;;2.55;1.50;;;;;;;12.79;25.97;100454.41;5093943;28;20488;-59
2022/04/28 06:59:46;;;;;;;2.38;1.17;;;;;;;12.34;24.50;100452.59;5075396;28;20432;-59
2022/04/28 07:02:12;;;;;;;3.83;1.67;;;;;;;12.57;24.18;100439.22;5090570;28;20032;-60
2022/04/28 07:04:38;;;;;;;2.13;1.52;;;;;;;12.73;24.17;100454.53;5075453;28;20052;-59
2022/04/28 07:07:04;;;;;;;4.15;1.70;;;;;;;13.16;25.45;100453.72;5094229;28;20038;-59
2022/04/28 07:09:29;;;;;;;1.52;1.25;;;;;;;13.52;23.31;100451.28;5093861;28;20077;-59
2022/04/28 07:11:55;;;;;;;4.93;1.30;;;;;;;14.25;21.95;100454.84;5093739;28;20070;-59
2022/04/28 07:14:20;;;;;;;2.13;1.40;;;;;;;13.84;22.77;100452.34;5093707;28;20493;-59
2022/04/28 07:16:46;;;;;;;1.20;1.08;;;;;;;14.27;23.43;100451.34;5093429;28;20031;-59
2022/04/28 07:19:11;;;;;;;4.75;1.45;;;;;;;15.12;23.47;100443.94;5094099;28;20035;-60
2022/04/28 07:21:37;;;;;;;4.18;1.50;;;;;;;15.42;22.31;100448.31;5093676;28;20494;-59
2022/04/28 07:24:03;;;;;;;5.78;1.63;;;;;;;14.96;21.59;100461.78;5093392;28;20031;-59
2022/04/28 07:26:28;;;;;;;3.00;1.20;;;;;;;14.93;20.22;100451.41;5093195;28;20036;-59
2022/04/28 07:28:54;;;;;;;2.47;1.00;;;;;;;14.77;19.40;100464.00;5089156;28;20028;-59
2022/04/28 07:31:20;;;;;;;2.05;1.00;;;;;;;13.75;21.62;100458.63;5092714;28;20027;-59
2022/04/28 07:33:45;;;;;;;3.35;1.25;;;;;;;13.26;21.53;100465.66;5083994;28;20020;-59
2022/04/28 07:36:12;;;;;;;2.70;1.38;;;;;;;12.66;21.73;100463.34;5087386;28;20032;-59
2022/04/28 07:38:39;;;;;;;3.30;1.40;;;;;;;12.58;22.58;100461.72;5073196;28;20025;-59
2022/04/28 07:41:04;;;;;;;3.80;1.35;;;;;;;11.97;22.65;100468.75;5088514;28;20024;-59
2022/04/28 07:43:30;;;;;;;2.60;1.40;;;;;;;11.85;22.55;100437.75;5093504;28;20422;-58
2022/04/28 07:45:55;;;;;;;1.80;1.27;;;;;;;11.89;22.75;100471.41;5092986;28;20032;-59
2022/04/28 07:48:21;;;;;;;1.30;1.10;;;;;;;11.27;22.16;100465.28;5093345;28;20059;-59
2022/04/28 07:50:47;;;;;;;1.38;1.27;;;;;;;11.70;23.80;100460.44;5092638;28;20055;-59
2022/04/28 07:53:13;;;;;;;1.48;1.20;;;;;;;12.40;23.74;100468.06;5088267;28;20013;-59
2022/04/28 07:55:39;;;;;;;3.33;1.35;;;;;;;11.65;24.84;100466.56;5084619;28;20028;-59
2022/04/28 07:58:06;;;;;;;4.47;1.35;;;;;;;10.36;24.30;100479.97;5092501;28;20488;-59
2022/04/28 08:00:31;;;;;;;2.08;1.38;;;;;;;10.71;24.12;100474.50;5092698;28;20127;-59
2022/04/28 08:02:58;;;;;;;1.80;1.30;;;;;;;9.30;23.81;100474.47;5092601;28;20027;-59
2022/04/28 08:05:24;;;;;;;4.68;1.75;;;;;;;9.65;25.20;100463.16;5092515;28;20090;-59
2022/04/28 08:07:49;;;;;;;2.50;1.58;;;;;;;10.55;26.61;100469.50;5074363;28;20032;-60
2022/04/28 08:10:15;;;;;;;3.45;1.52;;;;;;;10.77;26.41;100470.97;5092493;28;20030;-59
2022/04/28 08:12:40;;;;;;;2.83;1.70;;;;;;;11.01;28.76;100458.66;5093088;28;20432;-58
2022/04/28 08:15:07;;;;;;;2.35;1.85;;;;;;;10.88;25.28;100444.97;5092577;28;20099;-58
2022/04/28 08:17:34;;;;;;;2.40;1.60;;;;;;;10.81;25.69;100464.06;5092594;28;20141;-58
2022/04/28 08:19:59;;;;;;;4.70;1.50;;;;;;;11.22;25.57;100458.41;5092562;28;20095;-58
2022/04/28 08:22:25;;;;;;;2.55;1.30;;;;;;;11.52;26.34;100450.28;5092288;28;20023;-59
2022/04/28 08:24:50;;;;;;;3.03;1.55;;;;;;;11.83;24.53;100460.25;5092379;28;20563;-58
2022/04/28 08:27:16;;;;;;;1.95;1.50;;;;;;;11.51;24.75;100446.81;5087411;28;20028;-59
2022/04/28 08:29:42;;;;;;;3.30;1.50;;;;;;;11.63;26.14;100450.13;5091516;28;20456;-58
2022/04/28 08:32:07;;;;;;;2.22;1.55;;;;;;;11.58;24.48;100452.81;5092231;28;20032;-58
2022/04/28 08:34:33;;;;;;;2.10;1.50;;;;;;;11.68;25.44;100454.38;5092081;28;20024;-59
2022/04/28 08:36:59;;;;;;;1.52;1.38;;;;;;;10.95;24.52;100453.56;5092284;28;20032;-59
2022/04/28 08:39:25;;;;;;;4.32;1.83;;;;;;;11.03;25.85;100451.72;5073913;28;20039;-59
2022/04/28 08:41:53;;;;;;;3.67;1.50;;;;;;;9.66;25.06;100461.41;5092353;28;20024;-59
2022/04/28 08:44:26;;;;;;;5.40;1.40;;;;;;;9.85;26.41;100416.47;5092240;28;20028;-59
2022/04/28 08:46:55;;;;;;;1.80;1.15;;;;;;;10.40;26.21;100465.28;5092119;28;20469;-58
2022/04/28 08:49:29;;;;;;;2.83;1.50;;;;;;;10.36;25.83;100462.72;5073982;28;20098;-58
2022/04/28 08:51:56;;;;;;;1.75;1.20;;;;;;;10.09;26.98;100450.81;5092146;28;20038;-58
2022/04/28 08:54:25;;;;;;;5.05;1.60;;;;;;;9.63;27.95;100400.22;5091794;28;20148;-59
2022/04/28 08:56:52;;;;;;;2.58;1.63;;;;;;;10.06;26.77;100449.97;5092060;28;20059;-59
2022/04/28 08:59:22;;;;;;;3.65;1.35;;;;;;;10.37;26.43;100460.97;5091841;28;20032;-59
2022/04/28 09:01:50;;;;;;;2.30;1.30;;;;;;;10.27;27.56;100464.47;5091842;28;20030;-59
2022/04/28 09:04:17;;;;;;;2.28;1.48;;;;;;;10.02;26.84;100457.75;5091671;28;20020;-59
2022/04/28 09:06:43;;;;;;;8.18;1.75;;;;;;;10.04;26.98;100457.75;5091942;28;20055;-59
2022/04/28 09:09:12;;;;;;;3.40;1.67;;;;;;;9.62;27.51;100407.97;5091934;28;20119;-59
2022/04/28 09:11:40;;;;;;;4.05;1.77;;;;;;;10.24;27.18;100441.22;5091961;28;20448;-59
2022/04/28 09:14:18;;;;;;;6.47;1.77;;;;;;;10.21;27.09;100395.50;5091794;28;20028;-59
2022/04/28 09:16:45;;;;;;;3.88;1.63;;;;;;;10.88;25.69;100437.19;5091328;28;20107;-59
2022/04/28 09:19:14;;;;;;;3.15;2.30;;;;;;;10.97;27.45;100433.66;5091445;28;20027;-59
2022/04/28 09:21:40;;;;;;;4.75;1.40;;;;;;;11.11;27.11;100434.34;5086806;28;20499;-59
2022/04/28 09:24:07;;;;;;;3.15;1.40;;;;;;;11.37;26.69;100435.78;5082778;28;20489;-59
2022/04/28 09:26:34;;;;;;;2.28;1.73;;;;;;;10.90;26.92;100380.19;5082874;28;20397;-60
2022/04/28 09:29:02;;;;;;;3.88;1.60;;;;;;;10.97;26.94;100447.47;5077884;28;20462;-60
2022/04/28 09:31:35;;;;;;;3.90;1.52;;;;;;;11.10;27.62;100447.34;5085350;28;20165;-60
2022/04/28 09:34:12;;;;;;;2.47;1.40;;;;;;;10.81;27.60;100451.09;5080977;28;20536;-60
2022/04/28 09:36:39;;;;;;;3.08;1.75;;;;;;;10.46;26.45;100454.84;5082521;28;20111;-59
2022/04/28 09:39:06;;;;;;;3.20;1.90;;;;;;;10.40;27.99;100448.00;5072224;28;20443;-58
2022/04/28 09:44:22;;;;;;;3.05;1.40;;;;;;;10.92;27.48;100443.22;5091499;28;20035;-59
2022/04/28 09:46:49;;;;;;;2.17;1.30;;;;;;;11.05;26.43;100439.63;5091138;28;20039;-59
2022/04/28 09:49:18;;;;;;;6.18;1.75;;;;;;;10.98;27.05;100428.44;5091432;28;20055;-59
2022/04/28 09:51:45;;;;;;;4.57;1.75;;;;;;;10.45;26.22;100410.00;5091477;28;20024;-59
2022/04/28 09:54:13;;;;;;;4.25;1.85;;;;;;;9.76;27.59;100304.44;5089245;28;20099;-59
2022/04/28 09:56:40;;;;;;;7.82;1.85;;;;;;;10.91;26.79;100451.88;5090748;28;20031;-60
2022/04/28 09:59:09;;;;;;;3.33;1.38;;;;;;;10.81;26.27;100440.72;5091351;28;20482;-59
2022/04/28 10:01:37;;;;;;;3.08;1.70;;;;;;;10.88;26.52;100445.81;5084021;28;20095;-59
2022/04/28 10:04:03;;;;;;;3.90;2.03;;;;;;;11.01;26.19;100436.19;5091021;28;20039;-59
2022/04/28 10:06:31;;;;;;;4.57;1.58;;;;;;;10.78;25.73;100438.19;5069659;28;20072;-59
2022/04/28 10:08:58;;;;;;;3.40;1.80;;;;;;;10.40;27.10;100393.63;5076449;28;20398;-59
2022/04/28 10:11:24;;;;;;;3.58;1.80;;;;;;;10.90;26.65;100455.31;5079051;28;20056;-59
2022/04/28 10:13:51;;;;;;;2.97;1.75;;;;;;;10.83;26.09;100403.56;5084530;28;20024;-59
2022/04/28 10:16:21;;;;;;;1.85;1.40;;;;;;;10.96;25.77;100457.84;5076632;28;20378;-59
2022/04/28 10:18:55;;;;;;;4.38;1.40;;;;;;;10.95;27.67;100454.41;5092794;28;20422;-59
2022/04/28 10:21:25;;;;;;;2.20;1.67;;;;;;;10.76;26.33;100401.94;5095542;28;20157;-59
2022/04/28 10:32:59;;;;;;;3.33;1.70;;;;;;;11.31;24.50;100436.69;5074766;28;20040;-59
2022/04/28 10:35:41;;;;;;;1.73;1.48;;;;;;;11.17;24.49;100429.13;5091842;28;20047;-59
2022/04/28 10:38:11;;;;;;;4.13;1.88;;;;;;;10.73;25.49;100401.09;5094992;28;20099;-58
2022/04/28 10:40:38;;;;;;;3.50;1.48;;;;;;;11.36;25.20;100460.84;5094864;28;20032;-59
2022/04/28 10:43:17;;;;;;;3.08;2.20;;;;;;;11.29;25.40;100453.19;5094856;28;20039;-59
2022/04/28 10:45:44;;;;;;;4.90;1.77;;;;;;;11.03;26.53;100446.53;5094493;28;20028;-59
2022/04/28 10:48:43;;;;;;;2.80;1.73;;;;;;;11.12;26.48;100448.19;5094737;28;20406;-59
2022/04/28 10:51:12;;;;;;;2.72;1.70;;;;;;;11.29;27.63;100445.41;5075837;28;20044;-59
2022/04/28 10:54:14;;;;;;;3.47;1.92;;;;;;;11.40;26.51;100440.91;5068261;28;20024;-61
2022/04/28 10:56:40;;;;;;;5.45;2.10;;;;;;;11.14;26.36;100444.69;5093398;28;20030;-59
2022/04/28 10:59:36;;;;;;;2.70;1.83;;;;;;;11.30;28.27;100447.97;5094170;28;20110;-59
2022/04/28 11:02:07;;;;;;;2.67;1.88;;;;;;;11.38;26.15;100447.88;5094484;28;20036;-58
2022/04/28 11:04:33;;;;;;;3.03;1.75;;;;;;;11.47;26.98;100439.13;5094751;28;20063;-59
2022/04/28 11:06:59;;;;;;;7.35;2.03;;;;;;;11.38;26.66;100443.53;5094604;28;20502;-59
2022/04/28 11:09:36;;;;;;;2.83;2.03;;;;;;;10.87;28.23;100440.66;5094374;28;20031;-59
2022/04/28 11:12:13;;;;;;;4.88;2.17;;;;;;;11.00;28.28;100441.38;5094629;28;20024;-57
2022/04/28 11:14:45;;;;;;;2.53;1.85;;;;;;;10.75;25.85;100436.47;5094395;28;20020;-58
2022/04/28 11:17:12;;;;;;;3.35;1.80;;;;;;;10.73;25.53;100427.00;5094072;28;20036;-57
2022/04/28 11:19:39;;;;;;;2.80;1.80;;;;;;;10.88;26.41;100432.03;5094267;28;20031;-58
2022/04/28 11:22:05;;;;;;;1.85;1.60;;;;;;;11.03;29.13;100428.38;5076008;28;20491;-58
2022/04/28 11:24:31;;;;;;;2.15;1.70;;;;;;;10.95;27.64;100425.91;5094139;28;20020;-58
2022/04/28 11:27:00;;;;;;;2.90;2.10;;;;;;;11.10;27.31;100430.06;5075567;28;20032;-58
2022/04/28 11:29:27;;;;;;;4.75;1.70;;;;;;;11.22;26.95;100416.09;5093831;28;20035;-58
2022/04/28 11:31:54;;;;;;;3.80;2.05;;;;;;;10.97;26.14;100413.75;5094199;28;20377;-58
2022/04/28 11:34:20;;;;;;;4.25;2.17;;;;;;;11.22;27.53;100416.94;5093782;28;20346;-57
2022/04/28 11:36:46;;;;;;;4.82;2.10;;;;;;;11.15;27.04;100404.94;5093686;28;20039;-57
2022/04/28 11:39:12;;;;;;;3.42;1.95;;;;;;;11.14;26.67;100392.84;5093538;28;20114;-58
2022/04/28 11:41:40;;;;;;;4.70;2.08;;;;;;;11.26;26.98;100409.13;5093589;28;20024;-58
2022/04/28 11:44:09;;;;;;;5.38;1.90;;;;;;;11.36;26.11;100411.59;5093540;28;20029;-58
2022/04/28 11:46:56;;;;;;;3.65;1.88;;;;;;;11.26;26.71;100349.47;5093601;28;20028;-58
2022/04/28 11:49:23;;;;;;;3.53;2.45;;;;;;;10.82;25.83;100388.91;5093130;28;20092;-58
2022/04/28 11:51:49;;;;;;;6.00;2.25;;;;;;;11.07;27.42;100404.16;5093598;28;20028;-58
2022/04/28 11:54:19;;;;;;;5.75;2.35;;;;;;;10.88;26.73;100396.59;5093258;28;20035;-59
2022/04/28 11:56:45;;;;;;;6.30;2.50;;;;;;;10.38;27.55;100405.75;5093017;28;20487;-58
2022/04/28 11:59:11;;;;;;;5.90;2.00;;;;;;;10.49;27.61;100378.00;5093431;28;20074;-58